sensor_id;sensor_type;location;lat;lon;timestamp;P1;durP1;ratioP1;P2;durP2;ratioP2
1412;SDS011;701;52.526;13.408;2023-02-16T00:01:26;35.15;;;17.63;;
1412;SDS011;701;52.526;13.408;2023-02-16T00:03:55;36.63;;;18.33;;
1412;SDS011;701;52.526;13.408;2023-02-16T00:06:25;36.33;;;18.20;;
1412;SDS011;701;52.526;13.408;2023-02-16T00:08:52;38.08;;;18.55;;
1412;SDS011;701;52.526;13.408;2023-02-16T00:11:21;34.87;;;17.83;;
1412;SDS011;701;52.526;13.408;2023-02-16T00:14:11;37.70;;;18.20;;
1412;SDS011;701;52.526;13.408;2023-02-16T00:16:38;34.08;;;17.50;;
1412;SDS011;701;52.526;13.408;2023-02-16T00:19:20;35.85;;;16.55;;
1412;SDS011;701;52.526;13.408;2023-02-16T00:21:49;35.55;;;17.70;;
1412;SDS011;701;52.526;13.408;2023-02-16T00:24:17;35.37;;;16.70;;
1412;SDS011;701;52.526;13.408;2023-02-16T00:26:42;33.60;;;17.45;;
1412;SDS011;701;52.526;13.408;2023-02-16T00:29:19;36.20;;;18.33;;
1412;SDS011;701;52.526;13.408;2023-02-16T00:31:48;36.30;;;18.33;;
1412;SDS011;701;52.526;13.408;2023-02-16T00:36:52;33.25;;;17.35;;
1412;SDS011;701;52.526;13.408;2023-02-16T00:39:21;34.55;;;18.38;;
1412;SDS011;701;52.526;13.408;2023-02-16T00:41:49;35.22;;;17.90;;
1412;SDS011;701;52.526;13.408;2023-02-16T00:44:20;36.37;;;17.73;;
1412;SDS011;701;52.526;13.408;2023-02-16T00:49:44;42.80;;;18.30;;
1412;SDS011;701;52.526;13.408;2023-02-16T00:52:52;38.40;;;17.95;;
1412;SDS011;701;52.526;13.408;2023-02-16T00:55:04;33.47;;;16.83;;
1412;SDS011;701;52.526;13.408;2023-02-16T00:57:37;42.33;;;18.67;;
1412;SDS011;701;52.526;13.408;2023-02-16T01:00:10;37.47;;;17.83;;
1412;SDS011;701;52.526;13.408;2023-02-16T01:02:37;32.40;;;17.08;;
1412;SDS011;701;52.526;13.408;2023-02-16T01:05:03;33.10;;;16.48;;
1412;SDS011;701;52.526;13.408;2023-02-16T01:07:29;32.43;;;17.00;;
1412;SDS011;701;52.526;13.408;2023-02-16T01:10:14;33.45;;;16.50;;
1412;SDS011;701;52.526;13.408;2023-02-16T01:13:02;33.90;;;17.38;;
1412;SDS011;701;52.526;13.408;2023-02-16T01:15:28;32.15;;;16.38;;
1412;SDS011;701;52.526;13.408;2023-02-16T01:17:54;40.17;;;18.03;;
1412;SDS011;701;52.526;13.408;2023-02-16T01:20:21;38.17;;;17.77;;
1412;SDS011;701;52.526;13.408;2023-02-16T01:22:48;36.17;;;17.02;;
1412;SDS011;701;52.526;13.408;2023-02-16T01:25:14;37.40;;;17.45;;
1412;SDS011;701;52.526;13.408;2023-02-16T01:27:41;35.67;;;16.53;;
1412;SDS011;701;52.526;13.408;2023-02-16T01:30:12;33.78;;;16.58;;
1412;SDS011;701;52.526;13.408;2023-02-16T01:32:41;35.13;;;17.40;;
1412;SDS011;701;52.526;13.408;2023-02-16T01:35:08;34.05;;;17.15;;
1412;SDS011;701;52.526;13.408;2023-02-16T01:37:34;33.00;;;16.57;;
1412;SDS011;701;52.526;13.408;2023-02-16T01:40:00;33.10;;;16.42;;
1412;SDS011;701;52.526;13.408;2023-02-16T01:45:10;33.70;;;16.70;;
1412;SDS011;701;52.526;13.408;2023-02-16T01:47:51;31.50;;;16.27;;
1412;SDS011;701;52.526;13.408;2023-02-16T01:50:23;31.52;;;16.50;;
1412;SDS011;701;52.526;13.408;2023-02-16T01:52:59;34.83;;;16.48;;
1412;SDS011;701;52.526;13.408;2023-02-16T01:55:31;36.05;;;16.98;;
1412;SDS011;701;52.526;13.408;2023-02-16T01:58:04;32.50;;;15.90;;
1412;SDS011;701;52.526;13.408;2023-02-16T02:03:30;37.47;;;17.60;;
1412;SDS011;701;52.526;13.408;2023-02-16T02:06:21;36.80;;;17.02;;
1412;SDS011;701;52.526;13.408;2023-02-16T02:08:59;36.60;;;17.45;;
1412;SDS011;701;52.526;13.408;2023-02-16T02:14:29;35.03;;;17.33;;
1412;SDS011;701;52.526;13.408;2023-02-16T02:17:00;36.53;;;17.25;;
1412;SDS011;701;52.526;13.408;2023-02-16T02:19:37;34.72;;;17.30;;
1412;SDS011;701;52.526;13.408;2023-02-16T02:25:56;35.17;;;16.50;;
1412;SDS011;701;52.526;13.408;2023-02-16T02:28:28;39.38;;;17.50;;
1412;SDS011;701;52.526;13.408;2023-02-16T02:34:03;35.38;;;16.60;;
1412;SDS011;701;52.526;13.408;2023-02-16T02:36:49;33.92;;;16.60;;
1412;SDS011;701;52.526;13.408;2023-02-16T02:39:29;37.10;;;17.80;;
1412;SDS011;701;52.526;13.408;2023-02-16T02:42:42;34.40;;;17.08;;
1412;SDS011;701;52.526;13.408;2023-02-16T02:44:54;36.67;;;17.08;;
1412;SDS011;701;52.526;13.408;2023-02-16T02:47:39;35.55;;;16.70;;
1412;SDS011;701;52.526;13.408;2023-02-16T02:53:30;30.50;;;15.80;;
1412;SDS011;701;52.526;13.408;2023-02-16T02:56:02;30.65;;;15.75;;
1412;SDS011;701;52.526;13.408;2023-02-16T02:58:49;32.10;;;15.68;;
1412;SDS011;701;52.526;13.408;2023-02-16T03:01:40;29.83;;;15.70;;
1412;SDS011;701;52.526;13.408;2023-02-16T03:04:11;31.98;;;16.73;;
1412;SDS011;701;52.526;13.408;2023-02-16T03:06:43;32.63;;;16.47;;
1412;SDS011;701;52.526;13.408;2023-02-16T03:09:12;35.05;;;16.50;;
1412;SDS011;701;52.526;13.408;2023-02-16T03:11:39;33.63;;;16.75;;
1412;SDS011;701;52.526;13.408;2023-02-16T03:14:26;33.28;;;16.75;;
1412;SDS011;701;52.526;13.408;2023-02-16T03:17:14;31.35;;;15.35;;
1412;SDS011;701;52.526;13.408;2023-02-16T03:20:03;32.53;;;15.83;;
1412;SDS011;701;52.526;13.408;2023-02-16T03:22:50;31.20;;;15.50;;
1412;SDS011;701;52.526;13.408;2023-02-16T03:25:34;31.50;;;16.25;;
1412;SDS011;701;52.526;13.408;2023-02-16T03:28:22;30.88;;;15.73;;
1412;SDS011;701;52.526;13.408;2023-02-16T03:31:11;28.80;;;14.20;;
1412;SDS011;701;52.526;13.408;2023-02-16T03:33:41;31.40;;;15.43;;
1412;SDS011;701;52.526;13.408;2023-02-16T03:36:07;29.58;;;14.98;;
1412;SDS011;701;52.526;13.408;2023-02-16T03:38:33;30.85;;;15.63;;
1412;SDS011;701;52.526;13.408;2023-02-16T03:40:59;31.73;;;14.82;;
1412;SDS011;701;52.526;13.408;2023-02-16T03:43:26;28.02;;;15.10;;
1412;SDS011;701;52.526;13.408;2023-02-16T03:45:53;28.10;;;14.53;;
1412;SDS011;701;52.526;13.408;2023-02-16T03:48:18;31.63;;;15.75;;
1412;SDS011;701;52.526;13.408;2023-02-16T03:50:44;27.63;;;14.52;;
1412;SDS011;701;52.526;13.408;2023-02-16T03:53:10;29.73;;;14.70;;
1412;SDS011;701;52.526;13.408;2023-02-16T03:55:37;29.20;;;14.85;;
1412;SDS011;701;52.526;13.408;2023-02-16T03:58:08;29.23;;;14.65;;
1412;SDS011;701;52.526;13.408;2023-02-16T04:00:36;29.80;;;13.73;;
1412;SDS011;701;52.526;13.408;2023-02-16T04:03:02;30.30;;;14.45;;
1412;SDS011;701;52.526;13.408;2023-02-16T04:05:29;30.17;;;15.02;;
1412;SDS011;701;52.526;13.408;2023-02-16T04:07:55;28.05;;;14.27;;
1412;SDS011;701;52.526;13.408;2023-02-16T04:10:22;27.80;;;14.37;;
1412;SDS011;701;52.526;13.408;2023-02-16T04:12:49;26.73;;;14.07;;
1412;SDS011;701;52.526;13.408;2023-02-16T04:15:19;29.70;;;14.45;;
1412;SDS011;701;52.526;13.408;2023-02-16T04:17:47;24.65;;;13.68;;
1412;SDS011;701;52.526;13.408;2023-02-16T04:20:17;26.90;;;14.00;;
1412;SDS011;701;52.526;13.408;2023-02-16T04:22:44;26.55;;;13.80;;
1412;SDS011;701;52.526;13.408;2023-02-16T04:25:11;27.80;;;13.25;;
1412;SDS011;701;52.526;13.408;2023-02-16T04:27:37;28.98;;;13.80;;
1412;SDS011;701;52.526;13.408;2023-02-16T04:30:04;25.77;;;12.77;;
1412;SDS011;701;52.526;13.408;2023-02-16T04:32:33;26.60;;;13.87;;
1412;SDS011;701;52.526;13.408;2023-02-16T04:34:58;26.98;;;13.50;;
1412;SDS011;701;52.526;13.408;2023-02-16T04:37:24;28.20;;;13.67;;
1412;SDS011;701;52.526;13.408;2023-02-16T04:39:50;22.48;;;12.68;;
1412;SDS011;701;52.526;13.408;2023-02-16T04:42:15;28.03;;;12.97;;
1412;SDS011;701;52.526;13.408;2023-02-16T04:44:42;25.48;;;13.30;;
1412;SDS011;701;52.526;13.408;2023-02-16T04:47:08;26.02;;;13.43;;
1412;SDS011;701;52.526;13.408;2023-02-16T04:49:34;27.80;;;13.17;;
1412;SDS011;701;52.526;13.408;2023-02-16T04:52:00;25.70;;;12.63;;
1412;SDS011;701;52.526;13.408;2023-02-16T04:54:28;30.37;;;13.20;;
1412;SDS011;701;52.526;13.408;2023-02-16T04:56:58;28.55;;;13.25;;
1412;SDS011;701;52.526;13.408;2023-02-16T04:59:23;25.20;;;13.90;;
1412;SDS011;701;52.526;13.408;2023-02-16T05:01:49;23.73;;;12.57;;
1412;SDS011;701;52.526;13.408;2023-02-16T05:04:15;28.53;;;12.67;;
1412;SDS011;701;52.526;13.408;2023-02-16T05:06:41;26.33;;;12.57;;
1412;SDS011;701;52.526;13.408;2023-02-16T05:09:07;24.33;;;11.98;;
1412;SDS011;701;52.526;13.408;2023-02-16T05:11:33;27.10;;;13.50;;
1412;SDS011;701;52.526;13.408;2023-02-16T05:14:20;28.48;;;12.10;;
1412;SDS011;701;52.526;13.408;2023-02-16T05:19:38;24.47;;;12.57;;
1412;SDS011;701;52.526;13.408;2023-02-16T05:22:05;25.83;;;12.65;;
1412;SDS011;701;52.526;13.408;2023-02-16T05:24:31;34.42;;;12.48;;
1412;SDS011;701;52.526;13.408;2023-02-16T05:26:58;31.27;;;13.30;;
1412;SDS011;701;52.526;13.408;2023-02-16T05:29:25;28.95;;;13.18;;
1412;SDS011;701;52.526;13.408;2023-02-16T05:31:51;26.30;;;13.67;;
1412;SDS011;701;52.526;13.408;2023-02-16T05:34:16;27.13;;;13.95;;
1412;SDS011;701;52.526;13.408;2023-02-16T05:36:42;28.97;;;13.73;;
1412;SDS011;701;52.526;13.408;2023-02-16T05:39:08;26.80;;;14.05;;
1412;SDS011;701;52.526;13.408;2023-02-16T05:41:34;26.40;;;13.57;;
1412;SDS011;701;52.526;13.408;2023-02-16T05:44:01;28.33;;;13.43;;
1412;SDS011;701;52.526;13.408;2023-02-16T05:46:28;25.95;;;12.65;;
1412;SDS011;701;52.526;13.408;2023-02-16T05:48:57;26.65;;;12.70;;
1412;SDS011;701;52.526;13.408;2023-02-16T05:51:23;27.30;;;12.88;;
1412;SDS011;701;52.526;13.408;2023-02-16T05:53:49;29.57;;;12.43;;
1412;SDS011;701;52.526;13.408;2023-02-16T05:56:16;27.90;;;12.45;;
1412;SDS011;701;52.526;13.408;2023-02-16T05:58:42;25.75;;;11.63;;
1412;SDS011;701;52.526;13.408;2023-02-16T06:01:08;26.47;;;12.53;;
1412;SDS011;701;52.526;13.408;2023-02-16T06:03:34;27.02;;;12.38;;
1412;SDS011;701;52.526;13.408;2023-02-16T06:06:00;26.37;;;12.27;;
1412;SDS011;701;52.526;13.408;2023-02-16T06:08:27;26.35;;;13.18;;
1412;SDS011;701;52.526;13.408;2023-02-16T06:10:53;26.85;;;13.05;;
1412;SDS011;701;52.526;13.408;2023-02-16T06:13:20;31.98;;;12.48;;
1412;SDS011;701;52.526;13.408;2023-02-16T06:15:46;24.52;;;12.43;;
1412;SDS011;701;52.526;13.408;2023-02-16T06:18:14;25.33;;;12.77;;
1412;SDS011;701;52.526;13.408;2023-02-16T06:20:40;29.15;;;12.10;;
1412;SDS011;701;52.526;13.408;2023-02-16T06:23:06;25.52;;;12.18;;
1412;SDS011;701;52.526;13.408;2023-02-16T06:25:34;27.93;;;13.23;;
1412;SDS011;701;52.526;13.408;2023-02-16T06:28:00;28.88;;;13.10;;
1412;SDS011;701;52.526;13.408;2023-02-16T06:30:26;28.63;;;12.93;;
1412;SDS011;701;52.526;13.408;2023-02-16T06:32:52;23.88;;;12.38;;
1412;SDS011;701;52.526;13.408;2023-02-16T06:35:17;24.23;;;12.02;;
1412;SDS011;701;52.526;13.408;2023-02-16T06:37:43;29.13;;;13.00;;
1412;SDS011;701;52.526;13.408;2023-02-16T06:40:09;27.65;;;12.48;;
1412;SDS011;701;52.526;13.408;2023-02-16T06:42:38;29.13;;;12.93;;
1412;SDS011;701;52.526;13.408;2023-02-16T06:45:05;27.83;;;13.00;;
1412;SDS011;701;52.526;13.408;2023-02-16T06:47:31;29.63;;;14.25;;
1412;SDS011;701;52.526;13.408;2023-02-16T06:49:56;28.00;;;12.98;;
1412;SDS011;701;52.526;13.408;2023-02-16T06:52:22;27.00;;;12.00;;
1412;SDS011;701;52.526;13.408;2023-02-16T06:54:48;25.45;;;12.30;;
1412;SDS011;701;52.526;13.408;2023-02-16T06:57:13;26.88;;;11.65;;
1412;SDS011;701;52.526;13.408;2023-02-16T06:59:39;26.23;;;12.73;;
1412;SDS011;701;52.526;13.408;2023-02-16T07:02:05;24.73;;;12.80;;
1412;SDS011;701;52.526;13.408;2023-02-16T07:04:31;28.40;;;12.97;;
1412;SDS011;701;52.526;13.408;2023-02-16T07:07:01;26.58;;;13.05;;
1412;SDS011;701;52.526;13.408;2023-02-16T07:09:27;27.30;;;13.40;;
1412;SDS011;701;52.526;13.408;2023-02-16T07:11:53;26.85;;;13.07;;
1412;SDS011;701;52.526;13.408;2023-02-16T07:14:19;28.73;;;13.43;;
1412;SDS011;701;52.526;13.408;2023-02-16T07:16:45;27.33;;;13.20;;
1412;SDS011;701;52.526;13.408;2023-02-16T07:19:11;28.90;;;12.47;;
1412;SDS011;701;52.526;13.408;2023-02-16T07:21:36;28.60;;;12.95;;
1412;SDS011;701;52.526;13.408;2023-02-16T07:24:03;31.70;;;13.75;;
1412;SDS011;701;52.526;13.408;2023-02-16T07:26:28;30.27;;;13.50;;
1412;SDS011;701;52.526;13.408;2023-02-16T07:28:54;29.55;;;13.35;;
1412;SDS011;701;52.526;13.408;2023-02-16T07:31:20;35.97;;;14.10;;
1412;SDS011;701;52.526;13.408;2023-02-16T07:33:46;28.13;;;13.45;;
1412;SDS011;701;52.526;13.408;2023-02-16T07:36:12;27.27;;;12.67;;
1412;SDS011;701;52.526;13.408;2023-02-16T07:38:38;27.40;;;12.93;;
1412;SDS011;701;52.526;13.408;2023-02-16T07:41:06;32.13;;;13.35;;
1412;SDS011;701;52.526;13.408;2023-02-16T07:43:32;27.42;;;13.20;;
1412;SDS011;701;52.526;13.408;2023-02-16T07:45:58;31.23;;;12.43;;
1412;SDS011;701;52.526;13.408;2023-02-16T07:48:25;29.80;;;13.82;;
1412;SDS011;701;52.526;13.408;2023-02-16T07:50:50;25.77;;;12.88;;
1412;SDS011;701;52.526;13.408;2023-02-16T07:53:16;35.30;;;13.40;;
1412;SDS011;701;52.526;13.408;2023-02-16T07:55:42;30.80;;;13.07;;
1412;SDS011;701;52.526;13.408;2023-02-16T07:58:10;28.80;;;12.63;;
1412;SDS011;701;52.526;13.408;2023-02-16T08:00:51;33.03;;;14.10;;
1412;SDS011;701;52.526;13.408;2023-02-16T08:03:38;31.98;;;14.15;;
1412;SDS011;701;52.526;13.408;2023-02-16T08:06:05;30.33;;;13.83;;
1412;SDS011;701;52.526;13.408;2023-02-16T08:08:32;34.78;;;13.32;;
1412;SDS011;701;52.526;13.408;2023-02-16T08:10:58;26.15;;;13.32;;
1412;SDS011;701;52.526;13.408;2023-02-16T08:13:24;28.00;;;13.27;;
1412;SDS011;701;52.526;13.408;2023-02-16T08:15:50;27.43;;;13.80;;
1412;SDS011;701;52.526;13.408;2023-02-16T08:18:16;26.60;;;13.52;;
1412;SDS011;701;52.526;13.408;2023-02-16T08:20:42;30.00;;;14.10;;
1412;SDS011;701;52.526;13.408;2023-02-16T08:23:07;32.72;;;13.90;;
1412;SDS011;701;52.526;13.408;2023-02-16T08:25:34;30.67;;;14.13;;
1412;SDS011;701;52.526;13.408;2023-02-16T08:28:01;32.27;;;15.13;;
1412;SDS011;701;52.526;13.408;2023-02-16T08:30:27;43.75;;;20.30;;
1412;SDS011;701;52.526;13.408;2023-02-16T08:32:53;40.63;;;17.35;;
1412;SDS011;701;52.526;13.408;2023-02-16T08:35:20;51.13;;;23.10;;
1412;SDS011;701;52.526;13.408;2023-02-16T08:37:46;33.53;;;14.75;;
1412;SDS011;701;52.526;13.408;2023-02-16T08:40:12;43.55;;;15.70;;
1412;SDS011;701;52.526;13.408;2023-02-16T08:42:38;36.77;;;14.47;;
1412;SDS011;701;52.526;13.408;2023-02-16T08:45:04;31.87;;;13.80;;
1412;SDS011;701;52.526;13.408;2023-02-16T08:47:31;30.95;;;13.70;;
1412;SDS011;701;52.526;13.408;2023-02-16T08:49:58;34.85;;;14.90;;
1412;SDS011;701;52.526;13.408;2023-02-16T08:52:24;33.72;;;14.90;;
1412;SDS011;701;52.526;13.408;2023-02-16T08:54:49;35.07;;;15.53;;
1412;SDS011;701;52.526;13.408;2023-02-16T08:57:15;33.70;;;16.05;;
1412;SDS011;701;52.526;13.408;2023-02-16T08:59:42;36.60;;;14.83;;
1412;SDS011;701;52.526;13.408;2023-02-16T09:02:08;36.03;;;15.10;;
1412;SDS011;701;52.526;13.408;2023-02-16T09:04:35;38.58;;;15.23;;
1412;SDS011;701;52.526;13.408;2023-02-16T09:07:02;34.93;;;16.07;;
1412;SDS011;701;52.526;13.408;2023-02-16T09:09:28;30.85;;;16.23;;
1412;SDS011;701;52.526;13.408;2023-02-16T09:11:54;34.75;;;16.38;;
1412;SDS011;701;52.526;13.408;2023-02-16T09:14:22;34.70;;;15.95;;
1412;SDS011;701;52.526;13.408;2023-02-16T09:16:48;32.55;;;16.20;;
1412;SDS011;701;52.526;13.408;2023-02-16T09:19:15;37.20;;;16.35;;
1412;SDS011;701;52.526;13.408;2023-02-16T09:21:43;38.87;;;17.47;;
1412;SDS011;701;52.526;13.408;2023-02-16T09:24:10;49.42;;;27.08;;
1412;SDS011;701;52.526;13.408;2023-02-16T09:26:37;34.90;;;16.83;;
1412;SDS011;701;52.526;13.408;2023-02-16T09:29:06;51.60;;;27.05;;
1412;SDS011;701;52.526;13.408;2023-02-16T09:31:33;33.45;;;16.02;;
1412;SDS011;701;52.526;13.408;2023-02-16T09:34:02;36.20;;;17.80;;
1412;SDS011;701;52.526;13.408;2023-02-16T09:36:30;38.17;;;16.45;;
1412;SDS011;701;52.526;13.408;2023-02-16T09:38:56;39.10;;;18.42;;
1412;SDS011;701;52.526;13.408;2023-02-16T09:47:29;42.07;;;22.53;;
1412;SDS011;701;52.526;13.408;2023-02-16T09:50:14;41.08;;;19.80;;
1412;SDS011;701;52.526;13.408;2023-02-16T09:55:18;39.95;;;19.35;;
1412;SDS011;701;52.526;13.408;2023-02-16T09:58:06;51.13;;;23.13;;
1412;SDS011;701;52.526;13.408;2023-02-16T10:00:42;40.55;;;19.90;;
1412;SDS011;701;52.526;13.408;2023-02-16T10:06:18;34.80;;;17.20;;
1412;SDS011;701;52.526;13.408;2023-02-16T10:08:58;55.28;;;25.05;;
1412;SDS011;701;52.526;13.408;2023-02-16T10:11:40;40.40;;;20.75;;
1412;SDS011;701;52.526;13.408;2023-02-16T10:14:17;37.22;;;17.52;;
1412;SDS011;701;52.526;13.408;2023-02-16T10:17:07;36.17;;;18.38;;
1412;SDS011;701;52.526;13.408;2023-02-16T10:19:58;37.60;;;16.52;;
1412;SDS011;701;52.526;13.408;2023-02-16T10:22:27;32.88;;;16.67;;
1412;SDS011;701;52.526;13.408;2023-02-16T10:25:01;40.33;;;17.83;;
1412;SDS011;701;52.526;13.408;2023-02-16T10:27:49;40.55;;;18.88;;
1412;SDS011;701;52.526;13.408;2023-02-16T10:30:21;35.43;;;18.53;;
1412;SDS011;701;52.526;13.408;2023-02-16T10:32:58;35.65;;;18.67;;
1412;SDS011;701;52.526;13.408;2023-02-16T10:35:39;36.97;;;17.10;;
1412;SDS011;701;52.526;13.408;2023-02-16T10:46:00;32.65;;;17.20;;
1412;SDS011;701;52.526;13.408;2023-02-16T10:48:28;33.70;;;17.90;;
1412;SDS011;701;52.526;13.408;2023-02-16T10:51:36;32.35;;;17.25;;
1412;SDS011;701;52.526;13.408;2023-02-16T10:53:44;36.05;;;17.67;;
1412;SDS011;701;52.526;13.408;2023-02-16T10:56:27;38.97;;;16.50;;
1412;SDS011;701;52.526;13.408;2023-02-16T10:59:23;38.63;;;17.60;;
1412;SDS011;701;52.526;13.408;2023-02-16T11:01:55;35.75;;;18.75;;
1412;SDS011;701;52.526;13.408;2023-02-16T11:07:00;32.22;;;16.67;;
1412;SDS011;701;52.526;13.408;2023-02-16T11:09:43;34.77;;;17.70;;
1412;SDS011;701;52.526;13.408;2023-02-16T11:14:56;34.42;;;17.08;;
1412;SDS011;701;52.526;13.408;2023-02-16T11:17:23;36.63;;;19.40;;
1412;SDS011;701;52.526;13.408;2023-02-16T11:19:55;32.50;;;17.92;;
1412;SDS011;701;52.526;13.408;2023-02-16T11:22:34;39.23;;;20.47;;
1412;SDS011;701;52.526;13.408;2023-02-16T11:28:00;37.78;;;17.40;;
1412;SDS011;701;52.526;13.408;2023-02-16T11:30:27;33.53;;;17.45;;
1412;SDS011;701;52.526;13.408;2023-02-16T11:33:02;35.95;;;18.17;;
1412;SDS011;701;52.526;13.408;2023-02-16T11:35:31;42.17;;;17.90;;
1412;SDS011;701;52.526;13.408;2023-02-16T11:38:05;37.53;;;17.40;;
1412;SDS011;701;52.526;13.408;2023-02-16T11:40:31;38.20;;;16.40;;
1412;SDS011;701;52.526;13.408;2023-02-16T11:42:59;31.90;;;17.60;;
1412;SDS011;701;52.526;13.408;2023-02-16T11:45:31;32.72;;;19.10;;
1412;SDS011;701;52.526;13.408;2023-02-16T11:48:11;36.07;;;17.00;;
1412;SDS011;701;52.526;13.408;2023-02-16T11:50:55;35.65;;;16.70;;
1412;SDS011;701;52.526;13.408;2023-02-16T11:53:26;32.97;;;17.75;;
1412;SDS011;701;52.526;13.408;2023-02-16T11:58:35;65.15;;;28.17;;
1412;SDS011;701;52.526;13.408;2023-02-16T12:06:50;33.95;;;17.33;;
1412;SDS011;701;52.526;13.408;2023-02-16T12:09:38;36.65;;;17.42;;
1412;SDS011;701;52.526;13.408;2023-02-16T12:28:39;34.73;;;16.57;;
1412;SDS011;701;52.526;13.408;2023-02-16T12:40:49;34.28;;;16.30;;
1412;SDS011;701;52.526;13.408;2023-02-16T12:43:24;37.17;;;16.50;;
1412;SDS011;701;52.526;13.408;2023-02-16T12:46:19;33.03;;;14.93;;
1412;SDS011;701;52.526;13.408;2023-02-16T12:48:59;32.60;;;15.35;;
1412;SDS011;701;52.526;13.408;2023-02-16T12:51:38;32.80;;;16.23;;
1412;SDS011;701;52.526;13.408;2023-02-16T12:57:19;29.70;;;14.70;;
1412;SDS011;701;52.526;13.408;2023-02-16T12:59:57;34.95;;;15.15;;
1412;SDS011;701;52.526;13.408;2023-02-16T13:02:34;30.02;;;16.13;;
1412;SDS011;701;52.526;13.408;2023-02-16T13:05:10;31.70;;;15.10;;
1412;SDS011;701;52.526;13.408;2023-02-16T13:07:43;34.45;;;15.50;;
1412;SDS011;701;52.526;13.408;2023-02-16T13:12:48;44.25;;;20.52;;
1412;SDS011;701;52.526;13.408;2023-02-16T13:15:42;34.25;;;17.10;;
1412;SDS011;701;52.526;13.408;2023-02-16T13:18:19;31.00;;;15.77;;
1412;SDS011;701;52.526;13.408;2023-02-16T13:20:49;30.50;;;14.20;;
1412;SDS011;701;52.526;13.408;2023-02-16T13:23:29;30.70;;;15.30;;
1412;SDS011;701;52.526;13.408;2023-02-16T13:29:05;31.83;;;15.35;;
1412;SDS011;701;52.526;13.408;2023-02-16T13:37:15;32.10;;;15.97;;
1412;SDS011;701;52.526;13.408;2023-02-16T13:40:19;32.85;;;14.82;;
1412;SDS011;701;52.526;13.408;2023-02-16T13:45:57;32.75;;;14.82;;
1412;SDS011;701;52.526;13.408;2023-02-16T13:48:29;31.98;;;14.68;;
1412;SDS011;701;52.526;13.408;2023-02-16T13:51:07;33.67;;;14.43;;
1412;SDS011;701;52.526;13.408;2023-02-16T13:53:41;33.60;;;15.13;;
1412;SDS011;701;52.526;13.408;2023-02-16T13:56:17;31.35;;;14.82;;
1412;SDS011;701;52.526;13.408;2023-02-16T13:58:53;27.60;;;14.15;;
1412;SDS011;701;52.526;13.408;2023-02-16T14:04:04;43.30;;;13.77;;
1412;SDS011;701;52.526;13.408;2023-02-16T14:06:39;32.65;;;13.70;;
1412;SDS011;701;52.526;13.408;2023-02-16T14:19:48;38.80;;;13.73;;
1412;SDS011;701;52.526;13.408;2023-02-16T14:25:03;27.60;;;13.60;;
1412;SDS011;701;52.526;13.408;2023-02-16T14:30:26;32.57;;;13.53;;
1412;SDS011;701;52.526;13.408;2023-02-16T14:38:24;39.92;;;14.57;;
1412;SDS011;701;52.526;13.408;2023-02-16T14:40:54;27.70;;;13.68;;
1412;SDS011;701;52.526;13.408;2023-02-16T14:43:24;31.33;;;13.57;;
1412;SDS011;701;52.526;13.408;2023-02-16T15:02:57;39.25;;;13.20;;
1412;SDS011;701;52.526;13.408;2023-02-16T15:05:34;34.67;;;13.23;;
1412;SDS011;701;52.526;13.408;2023-02-16T15:10:33;32.63;;;13.57;;
1412;SDS011;701;52.526;13.408;2023-02-16T15:13:02;30.85;;;13.07;;
1412;SDS011;701;52.526;13.408;2023-02-16T15:18:17;28.80;;;13.30;;
1412;SDS011;701;52.526;13.408;2023-02-16T15:20:47;30.00;;;13.85;;
1412;SDS011;701;52.526;13.408;2023-02-16T15:23:21;28.17;;;12.33;;
1412;SDS011;701;52.526;13.408;2023-02-16T15:26:00;27.10;;;11.68;;
1412;SDS011;701;52.526;13.408;2023-02-16T15:28:32;31.08;;;12.65;;
1412;SDS011;701;52.526;13.408;2023-02-16T15:31:00;35.70;;;13.35;;
1412;SDS011;701;52.526;13.408;2023-02-16T15:33:43;26.95;;;12.20;;
1412;SDS011;701;52.526;13.408;2023-02-16T15:36:22;25.37;;;11.73;;
1412;SDS011;701;52.526;13.408;2023-02-16T15:38:57;29.45;;;12.77;;
1412;SDS011;701;52.526;13.408;2023-02-16T15:41:29;32.72;;;12.20;;
1412;SDS011;701;52.526;13.408;2023-02-16T15:43:58;33.40;;;12.02;;
1412;SDS011;701;52.526;13.408;2023-02-16T15:46:30;30.73;;;12.20;;
1412;SDS011;701;52.526;13.408;2023-02-16T15:49:11;30.37;;;12.43;;
1412;SDS011;701;52.526;13.408;2023-02-16T15:51:54;31.42;;;12.57;;
1412;SDS011;701;52.526;13.408;2023-02-16T15:54:25;35.92;;;12.75;;
1412;SDS011;701;52.526;13.408;2023-02-16T15:56:53;31.17;;;13.02;;
1412;SDS011;701;52.526;13.408;2023-02-16T16:02:14;30.83;;;12.50;;
1412;SDS011;701;52.526;13.408;2023-02-16T16:05:01;29.27;;;12.90;;
1412;SDS011;701;52.526;13.408;2023-02-16T16:07:33;32.05;;;13.27;;
1412;SDS011;701;52.526;13.408;2023-02-16T16:10:02;25.38;;;11.77;;
1412;SDS011;701;52.526;13.408;2023-02-16T16:12:39;32.10;;;12.00;;
1412;SDS011;701;52.526;13.408;2023-02-16T16:15:05;24.97;;;11.57;;
1412;SDS011;701;52.526;13.408;2023-02-16T16:17:32;28.67;;;12.23;;
1412;SDS011;701;52.526;13.408;2023-02-16T16:28:07;27.92;;;12.38;;
1412;SDS011;701;52.526;13.408;2023-02-16T16:30:38;28.33;;;12.50;;
1412;SDS011;701;52.526;13.408;2023-02-16T16:33:09;28.25;;;12.25;;
1412;SDS011;701;52.526;13.408;2023-02-16T16:38:26;27.37;;;12.07;;
1412;SDS011;701;52.526;13.408;2023-02-16T16:41:01;26.30;;;11.43;;
1412;SDS011;701;52.526;13.408;2023-02-16T16:43:31;39.42;;;12.88;;
1412;SDS011;701;52.526;13.408;2023-02-16T16:48:37;29.38;;;11.27;;
1412;SDS011;701;52.526;13.408;2023-02-16T16:51:15;25.13;;;11.07;;
1412;SDS011;701;52.526;13.408;2023-02-16T16:56:24;29.10;;;11.45;;
1412;SDS011;701;52.526;13.408;2023-02-16T16:58:50;29.23;;;11.52;;
1412;SDS011;701;52.526;13.408;2023-02-16T17:01:18;27.83;;;11.68;;
1412;SDS011;701;52.526;13.408;2023-02-16T17:03:44;31.50;;;12.03;;
1412;SDS011;701;52.526;13.408;2023-02-16T17:06:11;25.30;;;11.52;;
1412;SDS011;701;52.526;13.408;2023-02-16T17:08:38;25.10;;;11.35;;
1412;SDS011;701;52.526;13.408;2023-02-16T17:11:09;32.30;;;11.90;;
1412;SDS011;701;52.526;13.408;2023-02-16T17:13:56;31.38;;;13.18;;
1412;SDS011;701;52.526;13.408;2023-02-16T17:16:35;28.63;;;12.83;;
1412;SDS011;701;52.526;13.408;2023-02-16T17:19:03;30.52;;;13.07;;
1412;SDS011;701;52.526;13.408;2023-02-16T17:21:29;27.10;;;12.93;;
1412;SDS011;701;52.526;13.408;2023-02-16T17:23:55;30.50;;;12.83;;
1412;SDS011;701;52.526;13.408;2023-02-16T17:26:21;29.88;;;12.75;;
1412;SDS011;701;52.526;13.408;2023-02-16T17:28:47;25.83;;;12.27;;
1412;SDS011;701;52.526;13.408;2023-02-16T17:31:13;31.83;;;12.30;;
1412;SDS011;701;52.526;13.408;2023-02-16T17:33:39;30.17;;;12.68;;
1412;SDS011;701;52.526;13.408;2023-02-16T17:36:04;26.93;;;11.97;;
1412;SDS011;701;52.526;13.408;2023-02-16T17:38:31;30.77;;;12.55;;
1412;SDS011;701;52.526;13.408;2023-02-16T17:40:57;28.25;;;12.80;;
1412;SDS011;701;52.526;13.408;2023-02-16T17:43:24;31.98;;;12.13;;
1412;SDS011;701;52.526;13.408;2023-02-16T17:45:53;27.65;;;13.65;;
1412;SDS011;701;52.526;13.408;2023-02-16T17:48:24;31.03;;;12.17;;
1412;SDS011;701;52.526;13.408;2023-02-16T17:50:53;29.67;;;13.82;;
1412;SDS011;701;52.526;13.408;2023-02-16T17:53:20;32.03;;;13.27;;
1412;SDS011;701;52.526;13.408;2023-02-16T17:55:47;26.77;;;12.90;;
1412;SDS011;701;52.526;13.408;2023-02-16T17:58:16;32.63;;;14.10;;
1412;SDS011;701;52.526;13.408;2023-02-16T18:00:42;28.63;;;12.97;;
1412;SDS011;701;52.526;13.408;2023-02-16T18:03:09;27.33;;;13.15;;